WIF6YL ENTC-ENKR
Flight info
| Callsign | WIF6YL |
|---|---|
| Flight time | N/A |
| Altitude | 23000 |
| Route | ERPUG DCT TINOS DCT VADLA |
| Aircraft | DH8D/M-SDFGRY/SB1 |
Departure
| Time | 2026-05-04 10:13 |
|---|---|
| Airport | Tromsø Airport (ENTC) |
Arrival
| Time | N/A |
|---|---|
| Airport | Kirkenes Airport, Høybuktmoen (ENKR) |
| Time | Latitude | Longitude | Altitude | Speed | Heading |
|---|---|---|---|---|---|
| 2026-05-04 10:08 | 69.67697 | 18.90741 | -9 ft | 0 kts | 285° |
| 2026-05-04 10:10 | 69.67697 | 18.90722 | -9 ft | 1 kts | 251° |
| 2026-05-04 10:10 | 69.67683 | 18.90732 | -9 ft | 5 kts | 121° |
| 2026-05-04 10:10 | 69.67660 | 18.90945 | -6 ft | 13 kts | 112° |
| 2026-05-04 10:10 | 69.67635 | 18.91130 | -3 ft | 5 kts | 105° |
| 2026-05-04 10:11 | 69.67635 | 18.91137 | -3 ft | 0 kts | 105° |
| 2026-05-04 10:11 | 69.67634 | 18.91148 | -3 ft | 5 kts | 105° |
| 2026-05-04 10:12 | 69.67623 | 18.91377 | 1 ft | 10 kts | 60° |
| 2026-05-04 10:12 | 69.67676 | 18.91454 | 5 ft | 5 kts | 13° |
| 2026-05-04 10:12 | 69.67712 | 18.91479 | 6 ft | 24 kts | 13° |
| 2026-05-04 10:12 | 69.68208 | 18.91806 | 11 ft | 129 kts | 13° |
| 2026-05-04 10:13 | 69.69286 | 18.92549 | 410 ft | 176 kts | 14° |
| 2026-05-04 10:13 | 69.70507 | 18.93679 | 1305 ft | 203 kts | 22° |
| 2026-05-04 10:13 | 69.71888 | 18.94962 | 2394 ft | 219 kts | 15° |
| 2026-05-04 10:13 | 69.73353 | 18.96081 | 3393 ft | 222 kts | 15° |
| 2026-05-04 10:14 | 69.74728 | 18.97845 | 4357 ft | 218 kts | 41° |
| 2026-05-04 10:14 | 69.75458 | 19.01535 | 5134 ft | 220 kts | 72° |
| 2026-05-04 10:16 | 69.80065 | 19.31005 | 10858 ft | 245 kts | 74° |
| 2026-05-04 10:16 | 69.80193 | 19.35920 | 11631 ft | 248 kts | 94° |
| 2026-05-04 10:16 | 69.80115 | 19.40826 | 12423 ft | 251 kts | 94° |
| 2026-05-04 10:16 | 69.80039 | 19.45845 | 13246 ft | 254 kts | 94° |
| 2026-05-04 10:17 | 69.79964 | 19.51008 | 14077 ft | 258 kts | 94° |
| 2026-05-04 10:17 | 69.79991 | 19.56203 | 14861 ft | 264 kts | 86° |
| 2026-05-04 10:19 | 69.81536 | 19.95270 | 20142 ft | 298 kts | 86° |
| 2026-05-04 10:19 | 69.81771 | 20.01143 | 20927 ft | 301 kts | 86° |
| 2026-05-04 10:19 | 69.82011 | 20.07206 | 21672 ft | 305 kts | 87° |
| 2026-05-04 10:19 | 69.82250 | 20.13244 | 22452 ft | 308 kts | 86° |
| 2026-05-04 10:20 | 69.82490 | 20.19391 | 23174 ft | 312 kts | 87° |
| 2026-05-04 10:20 | 69.82734 | 20.25686 | 23940 ft | 315 kts | 87° |
| 2026-05-04 10:20 | 69.82975 | 20.31966 | 24652 ft | 320 kts | 87° |
| 2026-05-04 10:20 | 69.83219 | 20.38380 | 25302 ft | 326 kts | 86° |
| 2026-05-04 10:21 | 69.83465 | 20.44895 | 25911 ft | 329 kts | 86° |
| 2026-05-04 10:21 | 69.83713 | 20.51559 | 26109 ft | 339 kts | 86° |
| 2026-05-04 10:21 | 69.83966 | 20.58201 | 26055 ft | 328 kts | 86° |
| 2026-05-04 10:21 | 69.84215 | 20.64726 | 26027 ft | 320 kts | 86° |
| 2026-05-04 10:22 | 69.84673 | 20.77124 | 26010 ft | 302 kts | 87° |
| 2026-05-04 10:22 | 69.84888 | 20.83063 | 26014 ft | 293 kts | 87° |
| 2026-05-04 10:22 | 69.85095 | 20.88899 | 25880 ft | 292 kts | 87° |
| 2026-05-04 10:23 | 69.85300 | 20.94769 | 25646 ft | 294 kts | 88° |
| 2026-05-04 10:23 | 69.85502 | 21.00645 | 25415 ft | 297 kts | 88° |
| 2026-05-04 10:25 | 69.86916 | 21.43445 | 23414 ft | 314 kts | 87° |
| 2026-05-04 10:25 | 69.87106 | 21.49754 | 23110 ft | 316 kts | 89° |
| 2026-05-04 10:25 | 69.87143 | 21.56083 | 22822 ft | 316 kts | 94° |
| 2026-05-04 10:25 | 69.87113 | 21.62430 | 22582 ft | 315 kts | 94° |
| 2026-05-04 10:26 | 69.87081 | 21.68725 | 22528 ft | 309 kts | 95° |
| 2026-05-04 10:26 | 69.87050 | 21.74834 | 22528 ft | 301 kts | 95° |
| 2026-05-04 10:26 | 69.87017 | 21.80808 | 22525 ft | 293 kts | 95° |
| 2026-05-04 10:26 | 69.86984 | 21.86663 | 22525 ft | 285 kts | 95° |
| 2026-05-04 10:27 | 69.86952 | 21.92299 | 22535 ft | 277 kts | 95° |
| 2026-05-04 10:27 | 69.86918 | 21.97748 | 22539 ft | 269 kts | 95° |
| 2026-05-04 10:27 | 69.86884 | 22.03084 | 22543 ft | 261 kts | 95° |
| 2026-05-04 10:27 | 69.86848 | 22.08231 | 22536 ft | 253 kts | 95° |
| 2026-05-04 10:28 | 69.86814 | 22.13227 | 22527 ft | 244 kts | 95° |
| 2026-05-04 10:28 | 69.86777 | 22.18063 | 22515 ft | 235 kts | 96° |
| 2026-05-04 10:28 | 69.86739 | 22.22704 | 22502 ft | 225 kts | 97° |
| 2026-05-04 10:28 | 69.86526 | 22.27006 | 22475 ft | 208 kts | 114° |
| 2026-05-04 10:29 | 69.86237 | 22.31335 | 22560 ft | 235 kts | 97° |
| 2026-05-04 10:29 | 69.86240 | 22.36391 | 22557 ft | 266 kts | 92° |
| 2026-05-04 10:29 | 69.86276 | 22.41906 | 22782 ft | 285 kts | 92° |
| 2026-05-04 10:29 | 69.86286 | 22.47876 | 22848 ft | 310 kts | 93° |
| 2026-05-04 10:30 | 69.86276 | 22.54257 | 22873 ft | 332 kts | 93° |
| 2026-05-04 10:30 | 69.86247 | 22.61184 | 22878 ft | 351 kts | 93° |
| 2026-05-04 10:30 | 69.86203 | 22.68314 | 22893 ft | 365 kts | 94° |
| 2026-05-04 10:30 | 69.86146 | 22.75852 | 22890 ft | 376 kts | 94° |
| 2026-05-04 10:31 | 69.86081 | 22.83412 | 22885 ft | 383 kts | 94° |
| 2026-05-04 10:31 | 69.86017 | 22.90949 | 22877 ft | 366 kts | 94° |
| 2026-05-04 10:32 | 69.85577 | 23.31171 | 22937 ft | 310 kts | 95° |
| 2026-05-04 10:33 | 69.85497 | 23.37288 | 22931 ft | 304 kts | 95° |
| 2026-05-04 10:33 | 69.85414 | 23.43364 | 22939 ft | 298 kts | 95° |
| 2026-05-04 10:33 | 69.85330 | 23.49266 | 22933 ft | 293 kts | 95° |
| 2026-05-04 10:33 | 69.85244 | 23.55144 | 22931 ft | 288 kts | 95° |
| 2026-05-04 10:34 | 69.85159 | 23.60820 | 22922 ft | 282 kts | 95° |
| 2026-05-04 10:34 | 69.85072 | 23.66493 | 22925 ft | 277 kts | 96° |
| 2026-05-04 10:34 | 69.84986 | 23.71932 | 22929 ft | 271 kts | 96° |
| 2026-05-04 10:34 | 69.84898 | 23.77378 | 22933 ft | 266 kts | 97° |
| 2026-05-04 10:35 | 69.84812 | 23.82629 | 22937 ft | 260 kts | 97° |
| 2026-05-04 10:35 | 69.84732 | 23.87837 | 22916 ft | 255 kts | 96° |
| 2026-05-04 10:35 | 69.84688 | 23.92857 | 22925 ft | 249 kts | 95° |
| 2026-05-04 10:35 | 69.84652 | 23.97789 | 22909 ft | 243 kts | 95° |
| 2026-05-04 10:36 | 69.84618 | 24.02575 | 22913 ft | 235 kts | 95° |
| 2026-05-04 10:36 | 69.84583 | 24.07250 | 22907 ft | 227 kts | 95° |
| 2026-05-04 10:36 | 69.84551 | 24.11745 | 22888 ft | 219 kts | 95° |
| 2026-05-04 10:36 | 69.84518 | 24.16056 | 22889 ft | 210 kts | 95° |
| 2026-05-04 10:37 | 69.84485 | 24.20275 | 22699 ft | 211 kts | 96° |
| 2026-05-04 10:37 | 69.84441 | 24.24622 | 22577 ft | 222 kts | 96° |
| 2026-05-04 10:37 | 69.84379 | 24.29181 | 22955 ft | 243 kts | 96° |
| 2026-05-04 10:37 | 69.84315 | 24.34385 | 22959 ft | 279 kts | 95° |
| 2026-05-04 10:39 | 69.83927 | 24.76906 | 22931 ft | 379 kts | 94° |
| 2026-05-04 10:39 | 69.83857 | 24.84506 | 22942 ft | 373 kts | 94° |
| 2026-05-04 10:39 | 69.83778 | 24.91913 | 22943 ft | 374 kts | 94° |
| 2026-05-04 10:40 | 69.83695 | 24.99429 | 22954 ft | 374 kts | 94° |
| 2026-05-04 10:40 | 69.83607 | 25.06899 | 22949 ft | 374 kts | 94° |
| 2026-05-04 10:40 | 69.83515 | 25.14431 | 22964 ft | 374 kts | 94° |
| 2026-05-04 10:40 | 69.83421 | 25.21930 | 22970 ft | 374 kts | 94° |
| 2026-05-04 10:41 | 69.83321 | 25.29489 | 22962 ft | 375 kts | 94° |
| 2026-05-04 10:41 | 69.83221 | 25.36907 | 22957 ft | 375 kts | 94° |
| 2026-05-04 10:41 | 69.83115 | 25.44446 | 22951 ft | 375 kts | 94° |
| 2026-05-04 10:41 | 69.83006 | 25.51961 | 22949 ft | 375 kts | 94° |
| 2026-05-04 10:42 | 69.82893 | 25.59548 | 22943 ft | 376 kts | 94° |
| 2026-05-04 10:42 | 69.82779 | 25.67055 | 22936 ft | 376 kts | 95° |
| 2026-05-04 10:42 | 69.82660 | 25.74621 | 22937 ft | 376 kts | 95° |
| 2026-05-04 10:42 | 69.82538 | 25.82120 | 22934 ft | 376 kts | 95° |
| 2026-05-04 10:43 | 69.82413 | 25.89647 | 22935 ft | 376 kts | 94° |
| 2026-05-04 10:44 | 69.81447 | 26.42389 | 22936 ft | 376 kts | 94° |
| 2026-05-04 10:45 | 69.81297 | 26.49859 | 22952 ft | 376 kts | 94° |
| 2026-05-04 10:45 | 69.81142 | 26.57380 | 22934 ft | 377 kts | 94° |
| 2026-05-04 10:45 | 69.80984 | 26.64953 | 22948 ft | 377 kts | 94° |
| 2026-05-04 10:45 | 69.80823 | 26.72500 | 22944 ft | 377 kts | 95° |
| 2026-05-04 10:46 | 69.80660 | 26.80015 | 22946 ft | 377 kts | 95° |
| 2026-05-04 10:46 | 69.80493 | 26.87535 | 22946 ft | 377 kts | 95° |
| 2026-05-04 10:46 | 69.80325 | 26.95015 | 22962 ft | 377 kts | 95° |
| 2026-05-04 10:46 | 69.80149 | 27.02613 | 22973 ft | 376 kts | 95° |
| 2026-05-04 10:47 | 69.79973 | 27.10137 | 22972 ft | 376 kts | 95° |
| 2026-05-04 10:47 | 69.79793 | 27.17636 | 22958 ft | 377 kts | 95° |
| 2026-05-04 10:47 | 69.79610 | 27.25140 | 22961 ft | 377 kts | 95° |
| 2026-05-04 10:47 | 69.79424 | 27.32665 | 22959 ft | 377 kts | 95° |
| 2026-05-04 10:49 | 69.78024 | 27.85488 | 22938 ft | 378 kts | 96° |
| 2026-05-04 10:49 | 69.77812 | 27.93029 | 22951 ft | 378 kts | 96° |
| 2026-05-04 10:50 | 69.77596 | 28.00562 | 22951 ft | 378 kts | 95° |
| 2026-05-04 10:51 | 69.75996 | 28.53224 | 22957 ft | 378 kts | 95° |
| 2026-05-04 10:52 | 69.75754 | 28.60773 | 22674 ft | 372 kts | 95° |
| 2026-05-04 10:52 | 69.75525 | 28.68043 | 22038 ft | 362 kts | 96° |
| 2026-05-04 10:52 | 69.75296 | 28.75214 | 21378 ft | 354 kts | 96° |
| 2026-05-04 10:54 | 69.78507 | 29.20644 | 16727 ft | 318 kts | 76° |
| 2026-05-04 10:54 | 69.79005 | 29.26806 | 16079 ft | 314 kts | 76° |